Time;durP1;ratioP1;P1;durP2;ratioP2;P2;SDS_P1;SDS_P2;PMS_P1;PMS_P2;Temp;Humidity;BMP_temperature;BMP_pressure;BME280_temperature;BME280_humidity;BME280_pressure;Samples;Min_cycle;Max_cycle;Signal;HPM_P1;HPM_P2
2022/06/24 00:01:13;;;;;;;5.10;4.20;;;;;;;19.50;62.66;94807.13;4951795;28;20235;-68
2022/06/24 00:03:38;;;;;;;8.45;5.25;;;;;;;19.54;61.89;94808.34;4944861;28;20311;-68
2022/06/24 00:06:13;;;;;;;6.13;4.85;;;;;;;19.53;62.32;94806.69;4949050;28;20236;-68
2022/06/24 00:08:57;;;;;;;5.63;4.80;;;;;;;19.56;62.53;94805.47;4964368;28;20232;-68
2022/06/24 00:11:25;;;;;;;5.55;4.78;;;;;;;19.51;63.22;94814.13;4964334;28;20232;-68
2022/06/24 00:13:51;;;;;;;6.45;4.55;;;;;;;19.62;62.92;94815.31;4974332;28;20235;-67
2022/06/24 00:16:16;;;;;;;6.40;4.82;;;;;;;19.67;62.68;94818.16;4957412;28;20738;-69
2022/06/24 00:18:42;;;;;;;5.47;4.15;;;;;;;19.77;62.12;94826.53;4964819;28;20298;-68
2022/06/24 00:21:12;;;;;;;7.40;3.97;;;;;;;19.84;61.61;94826.50;4969008;28;20224;-69
2022/06/24 00:23:39;;;;;;;4.75;4.22;;;;;;;19.86;61.13;94832.44;4971774;28;20220;-69
2022/06/24 00:26:05;;;;;;;5.70;3.92;;;;;;;19.77;61.50;94834.53;4967707;28;20266;-68
2022/06/24 00:28:31;;;;;;;4.68;4.10;;;;;;;19.83;61.46;94836.34;4974184;28;20208;-67
2022/06/24 00:30:57;;;;;;;6.15;4.50;;;;;;;19.81;61.54;94841.09;4969019;28;20224;-68
2022/06/24 00:33:25;;;;;;;4.68;4.25;;;;;;;19.73;61.86;94840.53;4971072;28;20514;-68
2022/06/24 00:35:59;;;;;;;7.22;4.40;;;;;;;19.72;61.87;94845.00;4970041;28;20338;-67
2022/06/24 00:38:25;;;;;;;5.25;4.50;;;;;;;19.57;62.58;94847.13;4980873;28;20584;-68
2022/06/24 00:41:01;;;;;;;5.35;4.80;;;;;;;19.08;64.24;94845.81;4968713;28;20214;-69
2022/06/24 00:43:34;;;;;;;7.35;4.88;;;;;;;19.36;63.40;94851.69;4962944;28;20291;-68
2022/06/24 00:46:06;;;;;;;6.65;4.75;;;;;;;19.28;63.57;94845.78;4967942;28;20366;-68
2022/06/24 00:48:34;;;;;;;6.97;4.88;;;;;;;18.99;64.53;94841.75;4962804;28;20683;-68
2022/06/24 00:51:00;;;;;;;11.45;5.25;;;;;;;19.10;64.46;94846.44;4965313;28;20221;-68
2022/06/24 00:53:25;;;;;;;4.90;4.43;;;;;;;19.29;63.93;94839.41;4960717;28;20227;-68
2022/06/24 00:55:51;;;;;;;7.63;4.50;;;;;;;19.32;63.66;94839.81;4980260;28;20222;-68
2022/06/24 00:58:17;;;;;;;7.43;4.72;;;;;;;19.27;63.96;94842.31;4967725;28;20211;-68
2022/06/24 01:00:45;;;;;;;8.90;5.05;;;;;;;19.51;62.90;94847.94;4961252;28;20235;-68
2022/06/24 01:03:14;;;;;;;8.73;4.68;;;;;;;19.51;62.73;94845.28;4966206;28;20307;-66
2022/06/24 01:05:40;;;;;;;7.10;4.68;;;;;;;19.39;62.96;94845.94;4966846;28;20576;-67
2022/06/24 01:08:10;;;;;;;6.45;4.75;;;;;;;19.33;63.65;94841.47;4969534;28;20228;-68
2022/06/24 01:10:37;;;;;;;7.28;4.60;;;;;;;19.11;64.35;94837.41;4966957;28;20333;-67
2022/06/24 01:13:07;;;;;;;5.30;4.78;;;;;;;18.42;66.96;94850.16;4985733;28;20227;-68
2022/06/24 01:15:32;;;;;;;5.65;5.07;;;;;;;18.19;68.37;94849.72;4981723;28;20244;-68
2022/06/24 01:17:58;;;;;;;5.32;4.13;;;;;;;18.58;67.14;94856.09;4972639;28;20263;-68
2022/06/24 01:20:23;;;;;;;5.82;4.75;;;;;;;18.81;65.90;94850.38;4957830;28;20244;-68
2022/06/24 01:22:48;;;;;;;7.80;5.13;;;;;;;19.04;64.87;94852.59;4964917;28;20492;-68
2022/06/24 01:25:14;;;;;;;8.15;5.10;;;;;;;19.09;64.54;94845.63;4969270;28;20272;-68
2022/06/24 01:27:40;;;;;;;6.22;4.78;;;;;;;19.07;64.84;94846.84;4966717;28;20224;-67
2022/06/24 01:30:06;;;;;;;6.63;5.13;;;;;;;18.99;65.10;94839.91;4964166;28;20228;-68
2022/06/24 01:32:33;;;;;;;7.78;4.95;;;;;;;19.03;64.75;94842.97;4969344;28;20328;-69
2022/06/24 01:34:59;;;;;;;5.78;5.25;;;;;;;19.15;64.42;94844.78;4968412;28;20275;-68
2022/06/24 01:37:24;;;;;;;8.90;5.40;;;;;;;19.05;64.46;94840.91;4960650;28;20231;-68
2022/06/24 01:39:50;;;;;;;6.85;5.45;;;;;;;19.11;64.57;94842.72;4966527;28;20250;-67
2022/06/24 01:42:16;;;;;;;9.95;6.25;;;;;;;19.01;64.98;94837.03;4964493;28;20224;-68
2022/06/24 01:44:42;;;;;;;6.65;5.53;;;;;;;19.00;64.63;94836.19;4954229;28;20225;-67
2022/06/24 01:47:07;;;;;;;6.55;5.82;;;;;;;18.95;64.55;94828.00;4964313;28;20218;-68
2022/06/24 01:49:32;;;;;;;6.50;5.15;;;;;;;18.92;64.38;94839.94;4966521;28;20220;-67
2022/06/24 01:51:59;;;;;;;7.60;5.70;;;;;;;18.91;64.73;94835.59;4965644;28;20226;-68
2022/06/24 01:54:25;;;;;;;5.68;5.18;;;;;;;18.84;64.93;94829.47;4965514;28;20236;-68
2022/06/24 01:56:53;;;;;;;5.88;5.38;;;;;;;18.90;64.89;94831.31;4971731;28;20230;-68
2022/06/24 01:59:19;;;;;;;6.55;4.85;;;;;;;18.98;64.62;94824.09;4963324;28;20263;-67
2022/06/24 02:01:45;;;;;;;7.43;5.63;;;;;;;18.73;65.25;94817.56;4965162;28;20298;-69
2022/06/24 02:04:11;;;;;;;5.68;5.18;;;;;;;18.67;66.05;94812.25;4967034;28;20733;-68
2022/06/24 02:06:36;;;;;;;6.97;5.00;;;;;;;18.67;66.24;94804.28;4967092;28;20240;-68
2022/06/24 02:09:03;;;;;;;5.32;4.85;;;;;;;18.68;65.88;94804.06;4965886;28;20223;-68
2022/06/24 02:14:14;;;;;;;5.35;4.57;;;;;;;18.72;65.98;94801.81;4964309;28;20234;-67
2022/06/24 02:16:40;;;;;;;7.63;5.63;;;;;;;18.71;65.84;94805.47;4965607;28;20303;-67
2022/06/24 02:19:06;;;;;;;6.13;5.10;;;;;;;18.65;66.13;94812.44;4967389;28;20722;-68
2022/06/24 02:21:32;;;;;;;7.80;5.60;;;;;;;18.66;65.95;94814.09;4962892;28;20551;-69
2022/06/24 02:23:57;;;;;;;7.03;4.97;;;;;;;18.56;66.79;94819.03;4958754;28;20727;-68
2022/06/24 02:26:25;;;;;;;7.00;4.93;;;;;;;18.47;66.97;94813.09;4957946;28;20623;-67
2022/06/24 02:28:51;;;;;;;5.82;4.78;;;;;;;18.48;66.90;94813.91;4960803;28;20205;-68
2022/06/24 02:31:17;;;;;;;5.80;5.18;;;;;;;18.60;66.48;94814.09;4964785;28;20208;-67
2022/06/24 02:33:43;;;;;;;5.47;4.95;;;;;;;18.61;66.34;94821.91;4967063;28;20260;-68
2022/06/24 02:36:08;;;;;;;5.47;4.93;;;;;;;18.52;66.72;94825.78;4967924;28;20238;-67
2022/06/24 02:38:34;;;;;;;8.15;5.35;;;;;;;18.49;67.07;94835.00;4964421;28;20268;-68
2022/06/24 02:41:00;;;;;;;8.82;5.47;;;;;;;18.62;66.76;94826.19;4958403;28;20223;-68
2022/06/24 02:43:32;;;;;;;6.28;5.00;;;;;;;18.72;66.42;94828.44;4963387;28;20210;-69
2022/06/24 02:46:00;;;;;;;6.45;5.55;;;;;;;18.69;66.37;94828.84;4958489;28;20271;-68
2022/06/24 02:48:27;;;;;;;6.57;5.22;;;;;;;18.25;68.04;94832.94;4965564;28;20231;-69
2022/06/24 02:50:54;;;;;;;6.70;6.03;;;;;;;18.37;67.68;94820.69;4959387;28;20224;-68
2022/06/24 02:53:21;;;;;;;5.78;5.28;;;;;;;18.20;67.99;94816.75;4954274;28;20227;-68
2022/06/24 02:55:48;;;;;;;6.43;5.40;;;;;;;18.09;68.76;94820.84;4968856;28;20216;-68
2022/06/24 02:58:14;;;;;;;7.60;6.03;;;;;;;18.34;68.13;94823.75;4964560;28;20286;-68
2022/06/24 03:00:41;;;;;;;7.18;5.70;;;;;;;18.53;67.27;94814.13;4959080;28;20385;-67
2022/06/24 03:03:08;;;;;;;9.05;5.28;;;;;;;18.67;66.24;94812.25;4964712;28;20224;-68
2022/06/24 03:05:33;;;;;;;7.15;5.03;;;;;;;18.63;66.35;94821.66;4964379;28;20282;-68
2022/06/24 03:07:59;;;;;;;6.60;5.25;;;;;;;18.59;65.93;94817.81;4969019;28;20223;-68
2022/06/24 03:10:24;;;;;;;6.22;5.65;;;;;;;18.61;65.55;94827.22;4963144;28;20695;-68
2022/06/24 03:12:50;;;;;;;7.65;5.22;;;;;;;18.68;64.84;94827.19;4977979;28;20235;-69
2022/06/24 03:15:16;;;;;;;8.73;5.63;;;;;;;18.67;64.41;94825.56;4967214;28;20232;-68
2022/06/24 03:17:41;;;;;;;7.22;5.57;;;;;;;18.67;64.68;94830.91;4967401;28;20607;-68
2022/06/24 03:20:08;;;;;;;6.63;5.88;;;;;;;18.66;64.48;94831.94;4963412;28;20217;-69
2022/06/24 03:22:35;;;;;;;7.43;5.18;;;;;;;18.77;63.73;94835.84;4963424;28;20216;-68
2022/06/24 03:25:01;;;;;;;10.60;6.30;;;;;;;18.71;64.06;94832.13;4967347;28;20247;-68
2022/06/24 03:27:26;;;;;;;6.95;5.60;;;;;;;18.77;64.00;94831.34;4966720;28;20947;-68
2022/06/24 03:29:52;;;;;;;6.40;5.80;;;;;;;18.75;64.10;94828.06;4964639;28;20224;-68
2022/06/24 03:32:17;;;;;;;9.27;6.15;;;;;;;18.76;64.10;94831.53;4963969;28;20258;-67
2022/06/24 03:34:43;;;;;;;7.70;5.55;;;;;;;18.61;64.84;94827.22;4960275;28;20199;-68
2022/06/24 03:37:09;;;;;;;8.50;5.55;;;;;;;18.67;65.07;94834.38;4966702;28;20339;-69
2022/06/24 03:39:36;;;;;;;7.72;5.80;;;;;;;18.79;64.59;94847.94;4964137;28;20319;-68
2022/06/24 03:42:02;;;;;;;6.40;5.80;;;;;;;18.17;66.95;94847.25;4958273;28;20234;-68
2022/06/24 03:44:28;;;;;;;9.63;5.82;;;;;;;18.50;66.12;94849.97;4957458;28;20240;-69
2022/06/24 03:46:53;;;;;;;10.05;6.20;;;;;;;18.69;65.46;94839.50;4962489;28;20627;-68
2022/06/24 03:49:19;;;;;;;8.00;5.97;;;;;;;18.94;64.58;94832.53;4965666;28;20205;-68
2022/06/24 03:51:45;;;;;;;7.32;5.68;;;;;;;18.82;65.00;94836.88;4975930;28;20548;-69
2022/06/24 03:54:10;;;;;;;7.32;5.95;;;;;;;18.58;65.73;94842.78;4963057;28;20219;-68
2022/06/24 03:56:36;;;;;;;6.13;5.60;;;;;;;18.74;65.49;94847.72;4964802;28;20287;-68
2022/06/24 03:59:01;;;;;;;11.07;6.47;;;;;;;18.77;65.70;94849.16;4968551;28;20224;-70
2022/06/24 04:01:27;;;;;;;10.20;5.78;;;;;;;18.77;65.15;94830.53;4968920;28;20221;-70
2022/06/24 04:03:52;;;;;;;7.55;5.78;;;;;;;18.85;64.92;94831.13;4968706;28;20231;-68
2022/06/24 04:06:18;;;;;;;9.52;6.22;;;;;;;19.02;64.44;94833.34;4972132;28;20224;-67
2022/06/24 04:08:43;;;;;;;7.43;5.60;;;;;;;19.01;64.43;94826.38;4971126;28;20695;-69
2022/06/24 04:11:13;;;;;;;6.63;5.90;;;;;;;19.05;64.41;94822.25;4973375;28;20224;-68
2022/06/24 04:13:39;;;;;;;8.30;5.95;;;;;;;19.21;63.96;94832.47;4972378;28;20808;-67
2022/06/24 04:16:05;;;;;;;12.20;6.63;;;;;;;19.21;63.71;94832.47;4981623;28;20271;-68
2022/06/24 04:18:31;;;;;;;8.05;6.03;;;;;;;19.21;63.99;94837.78;4970950;28;20704;-68
2022/06/24 04:20:56;;;;;;;8.75;7.13;;;;;;;19.11;64.32;94842.72;4972524;28;20635;-67
2022/06/24 04:23:22;;;;;;;7.05;6.35;;;;;;;19.14;64.20;94843.16;4970807;28;20701;-68
2022/06/24 04:25:48;;;;;;;8.75;6.65;;;;;;;19.12;64.82;94844.38;4962067;28;20208;-68
2022/06/24 04:28:14;;;;;;;7.90;7.10;;;;;;;19.15;64.51;94849.31;4970843;28;20291;-68
2022/06/24 04:30:39;;;;;;;7.90;7.07;;;;;;;19.31;64.29;94848.84;4971211;28;20224;-67
2022/06/24 04:33:05;;;;;;;10.55;7.28;;;;;;;19.26;64.12;94848.66;4971390;28;20226;-68
2022/06/24 04:35:30;;;;;;;7.97;6.55;;;;;;;19.15;64.69;94866.09;4967302;28;20278;-69
2022/06/24 04:37:56;;;;;;;9.35;6.82;;;;;;;19.32;63.77;94863.78;4971722;28;20239;-69
2022/06/24 04:40:21;;;;;;;8.55;7.68;;;;;;;19.28;64.01;94865.25;4966984;28;20244;-68
2022/06/24 04:42:47;;;;;;;8.32;7.03;;;;;;;19.25;64.33;94871.00;4972874;28;20220;-70
2022/06/24 04:45:12;;;;;;;9.00;7.38;;;;;;;19.46;63.44;94867.25;4969737;28;20938;-68
2022/06/24 04:47:38;;;;;;;12.40;9.05;;;;;;;19.57;63.11;94874.59;4972430;28;20220;-69
2022/06/24 04:50:05;;;;;;;11.70;8.55;;;;;;;19.55;63.10;94873.19;4971745;28;20230;-69
2022/06/24 04:52:31;;;;;;;9.50;8.32;;;;;;;19.52;63.52;94865.59;4965301;28;20706;-69
2022/06/24 04:54:57;;;;;;;9.93;8.52;;;;;;;19.60;63.65;94865.38;4967404;28;20228;-70
2022/06/24 04:57:22;;;;;;;8.88;7.72;;;;;;;19.60;63.96;94868.84;4961710;28;20298;-69
2022/06/24 04:59:48;;;;;;;12.40;8.55;;;;;;;19.64;63.45;94868.41;4971055;28;20784;-70
2022/06/24 05:02:13;;;;;;;9.25;8.27;;;;;;;19.75;63.13;94873.13;4968745;28;20235;-70
2022/06/24 05:04:39;;;;;;;9.30;8.02;;;;;;;19.77;62.97;94884.41;4968549;28;20208;-69
2022/06/24 05:07:05;;;;;;;9.50;8.35;;;;;;;19.78;63.01;94876.19;4969356;28;20211;-69
2022/06/24 05:09:31;;;;;;;9.00;8.10;;;;;;;19.55;63.92;94866.00;4973980;28;20622;-69
2022/06/24 05:11:56;;;;;;;9.60;8.23;;;;;;;19.79;63.16;94872.47;4967743;28;20228;-69
2022/06/24 05:14:22;;;;;;;9.38;8.48;;;;;;;19.87;63.01;94878.63;4964187;28;20250;-68
2022/06/24 05:16:47;;;;;;;10.00;8.55;;;;;;;19.63;63.80;94872.13;4965445;28;20422;-69
2022/06/24 05:19:13;;;;;;;8.75;7.95;;;;;;;19.83;63.80;94884.38;4969481;28;20282;-67
2022/06/24 05:21:39;;;;;;;9.45;7.90;;;;;;;19.95;63.30;94887.19;4965831;28;20820;-68
2022/06/24 05:24:05;;;;;;;9.48;7.85;;;;;;;20.13;62.55;94891.81;4962145;28;20220;-69
2022/06/24 05:26:30;;;;;;;9.55;8.55;;;;;;;20.20;62.44;94889.91;4960352;28;20248;-69
2022/06/24 05:28:56;;;;;;;9.25;8.35;;;;;;;19.90;63.65;94888.88;4963727;28;20263;-69
2022/06/24 05:31:21;;;;;;;10.48;9.23;;;;;;;20.02;63.41;94892.47;4982593;28;20217;-69
2022/06/24 05:33:46;;;;;;;11.38;8.60;;;;;;;20.24;62.61;94901.81;4966065;28;20746;-69
2022/06/24 05:36:12;;;;;;;10.63;9.50;;;;;;;20.47;61.99;94905.78;4968084;28;20235;-68
2022/06/24 05:38:38;;;;;;;10.23;9.27;;;;;;;20.52;61.64;94919.31;4963628;28;20757;-68
2022/06/24 05:41:03;;;;;;;10.23;9.20;;;;;;;20.57;61.49;94910.69;4948666;28;20224;-68
2022/06/24 05:43:29;;;;;;;11.30;9.05;;;;;;;20.49;61.67;94917.06;4966188;28;20712;-68
2022/06/24 05:45:54;;;;;;;10.13;9.27;;;;;;;20.58;61.02;94920.31;4967288;28;20725;-68
2022/06/24 05:48:20;;;;;;;10.35;9.45;;;;;;;20.54;61.45;94919.94;4967697;28;20232;-68
2022/06/24 05:50:46;;;;;;;9.75;8.82;;;;;;;20.44;61.63;94916.88;4963033;28;20283;-68
2022/06/24 05:55:58;;;;;;;8.60;7.70;;;;;;;20.25;61.30;94916.78;4963007;28;20243;-67
2022/06/24 05:58:25;;;;;;;8.65;7.85;;;;;;;20.11;62.57;94912.56;4965794;28;20212;-67
2022/06/24 06:00:51;;;;;;;8.88;7.97;;;;;;;20.20;62.69;94924.63;4967481;28;20303;-68
2022/06/24 06:03:17;;;;;;;10.30;7.90;;;;;;;20.37;62.03;94932.13;4967913;28;20231;-68
2022/06/24 06:05:42;;;;;;;8.88;8.05;;;;;;;20.55;61.15;94931.44;4962793;28;20224;-67
2022/06/24 06:08:07;;;;;;;8.15;7.35;;;;;;;20.66;61.13;94928.06;4956333;28;20239;-69
2022/06/24 06:10:35;;;;;;;8.05;7.25;;;;;;;20.78;61.27;94926.34;4959392;28;20216;-66
2022/06/24 06:13:01;;;;;;;8.65;7.72;;;;;;;20.96;59.86;94914.91;4949706;28;20228;-66
2022/06/24 06:15:29;;;;;;;10.50;8.23;;;;;;;20.93;59.85;94910.81;4963119;28;20220;-67
2022/06/24 06:17:54;;;;;;;9.00;7.43;;;;;;;20.96;59.25;94908.75;4968803;28;20227;-70
2022/06/24 06:20:20;;;;;;;8.55;7.75;;;;;;;20.83;59.07;94904.31;4968719;28;20221;-67
2022/06/24 06:22:45;;;;;;;8.70;7.40;;;;;;;20.95;59.18;94899.06;4955142;28;20227;-68
2022/06/24 06:25:12;;;;;;;7.65;6.95;;;;;;;21.13;59.07;94883.88;4967081;28;20204;-67
2022/06/24 06:27:37;;;;;;;7.00;6.25;;;;;;;21.13;59.13;94881.22;4968358;28;20235;-67
2022/06/24 06:30:04;;;;;;;7.30;6.60;;;;;;;21.20;59.16;94891.88;4972292;28;20258;-69
2022/06/24 06:32:30;;;;;;;7.43;6.72;;;;;;;21.04;59.08;94898.59;4957540;28;20801;-67
2022/06/24 06:34:55;;;;;;;7.35;6.65;;;;;;;20.81;60.32;94896.50;4957491;28;20212;-69
2022/06/24 06:37:21;;;;;;;7.65;6.85;;;;;;;20.88;60.20;94891.13;4967773;28;20346;-68
2022/06/24 06:39:46;;;;;;;7.20;6.53;;;;;;;20.90;60.15;94889.03;4971835;28;20243;-68
2022/06/24 06:42:11;;;;;;;6.90;5.20;;;;;;;20.78;59.69;94891.63;4969744;28;20589;-68
2022/06/24 06:44:37;;;;;;;6.75;5.30;;;;;;;20.75;59.75;94884.03;4954381;28;20598;-70
2022/06/24 06:47:02;;;;;;;5.97;5.10;;;;;;;20.87;59.60;94889.47;4962793;28;20228;-67
2022/06/24 06:49:28;;;;;;;9.38;8.57;;;;;;;20.92;59.21;94895.78;4964996;28;20201;-70
2022/06/24 06:51:53;;;;;;;12.98;8.15;;;;;;;20.91;59.61;94877.31;4966753;28;20224;-67
2022/06/24 06:54:19;;;;;;;8.23;7.40;;;;;;;20.96;59.42;94868.66;4958653;28;20233;-68
2022/06/24 06:56:44;;;;;;;11.18;6.93;;;;;;;21.17;58.39;94868.25;4964079;28;20236;-68
2022/06/24 06:59:10;;;;;;;9.50;8.00;;;;;;;21.20;59.38;94872.31;4966115;28;20284;-68
2022/06/24 07:01:36;;;;;;;5.85;5.35;;;;;;;21.34;57.54;94874.63;4964828;28;20195;-71
2022/06/24 07:04:02;;;;;;;6.25;4.80;;;;;;;21.38;57.36;94869.69;4963415;28;20597;-75
2022/06/24 07:06:27;;;;;;;5.10;4.60;;;;;;;21.46;57.28;94874.72;4957709;28;20270;-70
2022/06/24 07:08:53;;;;;;;6.63;4.57;;;;;;;21.53;56.34;94872.81;4968208;28;20227;-68
2022/06/24 07:11:18;;;;;;;4.30;3.90;;;;;;;21.50;57.11;94867.91;4956577;28;20216;-68
2022/06/24 07:13:44;;;;;;;4.72;4.32;;;;;;;21.72;55.67;94870.13;4964739;28;20246;-68
2022/06/24 07:16:10;;;;;;;6.50;4.25;;;;;;;21.70;54.62;94861.50;4965140;28;20698;-69
2022/06/24 07:18:36;;;;;;;4.43;4.03;;;;;;;21.69;55.08;94866.03;4968406;28;20302;-68
2022/06/24 07:21:02;;;;;;;6.82;4.47;;;;;;;21.77;54.73;94857.69;4963732;28;20882;-69
2022/06/24 07:23:27;;;;;;;4.50;4.15;;;;;;;21.78;54.44;94859.34;4964385;28;20237;-69
2022/06/24 07:25:56;;;;;;;4.65;4.25;;;;;;;21.96;54.52;94860.34;4963952;28;20237;-67
2022/06/24 07:28:22;;;;;;;4.70;3.92;;;;;;;21.91;55.23;94861.03;4966188;28;20584;-66
2022/06/24 07:30:47;;;;;;;4.50;4.10;;;;;;;21.95;55.27;94853.38;4964857;28;20232;-72
2022/06/24 07:33:12;;;;;;;5.00;4.38;;;;;;;21.96;55.42;94860.34;4963709;28;20250;-68
2022/06/24 07:35:38;;;;;;;7.20;4.50;;;;;;;22.06;54.64;94868.66;4966010;28;20228;-69
2022/06/24 07:38:03;;;;;;;5.70;5.13;;;;;;;21.94;54.64;94865.09;4943541;28;20227;-67
2022/06/24 07:40:29;;;;;;;5.47;5.00;;;;;;;21.84;54.98;94865.66;4953437;28;20236;-69
2022/06/24 07:42:54;;;;;;;6.78;4.18;;;;;;;21.93;53.97;94861.63;4971272;28;20597;-68
2022/06/24 07:45:20;;;;;;;5.18;4.45;;;;;;;21.99;52.75;94859.91;4966377;28;20217;-68
2022/06/24 07:47:45;;;;;;;5.45;4.82;;;;;;;21.98;52.37;94871.66;4962514;28;20223;-69
2022/06/24 07:50:11;;;;;;;5.75;4.53;;;;;;;21.87;52.87;94859.84;4972328;28;20230;-68
2022/06/24 07:52:36;;;;;;;6.50;4.38;;;;;;;21.89;53.49;94860.44;4970658;28;20235;-67
2022/06/24 07:57:46;;;;;;;5.00;4.53;;;;;;;22.20;52.53;94856.75;4965777;28;20307;-68
2022/06/24 08:00:12;;;;;;;4.32;3.90;;;;;;;22.09;51.90;94854.00;4972678;28;20664;-68
2022/06/24 08:02:37;;;;;;;4.97;4.57;;;;;;;22.01;52.71;94857.81;4955994;28;20220;-69
2022/06/24 08:05:03;;;;;;;6.43;5.13;;;;;;;21.79;52.80;94855.63;4975231;28;20508;-69
2022/06/24 08:07:29;;;;;;;5.93;4.70;;;;;;;22.01;52.90;94853.28;4971990;28;20205;-69
2022/06/24 08:09:54;;;;;;;7.00;4.30;;;;;;;22.12;52.55;94853.53;4967988;28;20568;-70
2022/06/24 08:12:19;;;;;;;5.00;4.47;;;;;;;22.25;51.71;94850.72;4968738;28;20240;-70
2022/06/24 08:14:45;;;;;;;5.63;4.90;;;;;;;22.33;52.52;94849.56;4969267;28;20225;-66
2022/06/24 08:17:10;;;;;;;5.30;4.38;;;;;;;22.50;50.97;94849.72;4975061;28;20255;-68
2022/06/24 08:19:36;;;;;;;6.22;4.47;;;;;;;22.62;50.24;94848.69;4959515;28;20218;-68
2022/06/24 08:22:01;;;;;;;5.53;4.65;;;;;;;22.73;51.25;94854.31;4970544;28;20224;-68
2022/06/24 08:24:27;;;;;;;4.97;4.47;;;;;;;22.75;50.08;94841.47;4968470;28;20226;-69
2022/06/24 08:26:52;;;;;;;4.05;3.65;;;;;;;22.78;49.74;94843.72;4970012;28;20790;-69
2022/06/24 08:29:18;;;;;;;6.53;4.05;;;;;;;22.74;49.53;94843.34;4968598;28;20291;-69
2022/06/24 08:31:43;;;;;;;6.43;4.05;;;;;;;22.73;50.51;94847.09;4961282;28;20219;-66
2022/06/24 08:34:09;;;;;;;4.47;4.05;;;;;;;22.83;49.23;94850.00;4976944;28;20326;-66
2022/06/24 08:36:36;;;;;;;4.80;4.40;;;;;;;22.79;48.75;94843.47;4964719;28;20703;-67
2022/06/24 08:39:02;;;;;;;4.18;3.78;;;;;;;22.90;48.51;94845.34;4969616;28;20242;-67
2022/06/24 08:41:27;;;;;;;5.32;4.70;;;;;;;23.07;47.23;94844.69;4971434;28;20500;-67
2022/06/24 08:43:55;;;;;;;5.60;4.05;;;;;;;23.04;47.82;94842.44;4964706;28;20196;-67
2022/06/24 08:46:21;;;;;;;5.10;4.50;;;;;;;23.13;47.97;94843.75;4965601;28;20255;-68
2022/06/24 08:48:49;;;;;;;4.80;4.32;;;;;;;23.17;49.60;94850.25;4968052;28;20242;-63
2022/06/24 08:51:15;;;;;;;4.85;4.43;;;;;;;23.07;49.66;94850.88;4954725;28;20249;-63
2022/06/24 08:53:42;;;;;;;5.80;5.10;;;;;;;23.06;49.04;94851.91;4974156;28;20323;-67
2022/06/24 08:56:08;;;;;;;5.28;4.78;;;;;;;23.09;49.40;94856.81;4975131;28;20231;-72
2022/06/24 08:58:35;;;;;;;4.70;4.15;;;;;;;23.26;50.04;94854.25;4968231;28;20208;-64
2022/06/24 09:01:01;;;;;;;8.05;4.13;;;;;;;23.36;48.76;94858.19;4967576;28;20414;-64
2022/06/24 09:03:27;;;;;;;4.72;4.18;;;;;;;23.23;48.89;94856.56;4959215;28;20257;-70
2022/06/24 09:05:53;;;;;;;5.80;4.82;;;;;;;23.31;49.41;94853.53;4964923;28;20306;-70
2022/06/24 09:08:18;;;;;;;4.38;3.95;;;;;;;23.54;49.56;94850.00;4969709;28;20219;-71
2022/06/24 09:13:31;;;;;;;4.50;4.20;;;;;;;23.62;47.09;94838.88;4970080;28;20310;-70
2022/06/24 09:15:56;;;;;;;5.03;4.50;;;;;;;23.59;47.59;94841.22;4976943;28;20283;-68
2022/06/24 09:18:23;;;;;;;6.50;4.50;;;;;;;23.43;47.59;94838.22;4970962;28;20247;-68
2022/06/24 09:20:50;;;;;;;5.70;3.55;;;;;;;23.44;46.36;94845.25;4967545;28;20227;-67
2022/06/24 09:23:16;;;;;;;5.00;3.80;;;;;;;23.61;46.54;94845.31;4968474;28;20224;-67
2022/06/24 09:25:54;;;;;;;4.50;3.47;;;;;;;23.52;47.48;94846.72;4964034;28;20631;-67
2022/06/24 09:28:31;;;;;;;3.50;3.20;;;;;;;23.53;46.47;94837.63;4955022;28;20326;-67
2022/06/24 09:31:14;;;;;;;4.95;4.40;;;;;;;23.61;46.72;94839.94;4966883;28;20290;-66
2022/06/24 09:33:42;;;;;;;7.35;6.05;;;;;;;23.57;47.17;94836.09;4971780;28;20234;-73
2022/06/24 09:36:09;;;;;;;4.25;3.50;;;;;;;23.80;46.54;94837.13;4970178;28;20238;-69
2022/06/24 09:39:04;;;;;;;5.75;3.10;;;;;;;23.82;46.37;94835.00;4960521;28;20247;-68
2022/06/24 09:41:40;;;;;;;6.00;3.42;;;;;;;23.93;46.76;94837.66;4954033;28;20280;-68
2022/06/24 09:44:06;;;;;;;4.68;3.80;;;;;;;24.07;44.89;94846.25;4975218;28;20220;-68
2022/06/24 09:46:31;;;;;;;3.05;2.75;;;;;;;24.26;43.37;94851.41;4970936;28;20215;-68
2022/06/24 09:49:10;;;;;;;4.35;3.05;;;;;;;24.53;43.57;94848.97;4970980;28;20274;-69
2022/06/24 09:51:36;;;;;;;3.40;2.50;;;;;;;24.72;43.04;94844.97;4970425;28;20314;-70
2022/06/24 09:54:01;;;;;;;4.28;2.22;;;;;;;24.79;41.61;94850.19;4970495;28;20652;-69
2022/06/24 09:56:28;;;;;;;3.50;2.63;;;;;;;24.79;42.09;94844.81;4969487;28;20616;-65
2022/06/24 10:01:41;;;;;;;3.03;2.72;;;;;;;25.15;42.16;94839.97;4964782;28;20469;-67
2022/06/24 10:04:12;;;;;;;3.08;2.70;;;;;;;25.14;43.15;94839.16;4963423;28;20212;-70
2022/06/24 10:06:38;;;;;;;4.53;2.15;;;;;;;25.27;41.55;94846.13;4975192;28;20223;-70
2022/06/24 10:09:06;;;;;;;3.42;2.28;;;;;;;25.49;39.70;94844.25;4966351;28;20228;-67
2022/06/24 10:11:37;;;;;;;2.80;1.85;;;;;;;25.61;36.49;94837.94;4968746;28;20327;-68
2022/06/24 10:14:03;;;;;;;3.80;2.33;;;;;;;25.81;37.04;94851.66;4954519;28;20571;-67
2022/06/24 10:16:29;;;;;;;3.28;2.40;;;;;;;25.95;37.79;94858.34;4961924;28;20278;-65
2022/06/24 10:18:56;;;;;;;3.13;2.10;;;;;;;25.95;36.41;94842.19;4979614;28;20263;-63
2022/06/24 10:21:22;;;;;;;3.00;2.45;;;;;;;25.78;38.49;94860.25;4969261;28;20232;-66
2022/06/24 10:23:48;;;;;;;3.05;2.17;;;;;;;25.40;38.87;94856.53;4970272;28;20649;-67
2022/06/24 10:26:16;;;;;;;3.92;2.45;;;;;;;25.48;38.32;94856.09;4955274;28;20307;-66
2022/06/24 10:29:05;;;;;;;3.03;2.17;;;;;;;25.58;38.83;94849.22;4968221;28;20239;-69
2022/06/24 10:31:37;;;;;;;3.15;2.20;;;;;;;25.79;38.21;94848.41;4966356;28;20578;-69
2022/06/24 10:34:03;;;;;;;2.40;2.10;;;;;;;25.99;37.71;94852.44;4958045;28;20734;-69
2022/06/24 10:36:31;;;;;;;3.25;2.50;;;;;;;26.08;37.69;94850.91;4964294;28;20237;-70
2022/06/24 10:39:09;;;;;;;2.60;2.30;;;;;;;26.25;37.35;94846.25;4971919;28;20335;-66
2022/06/24 10:41:39;;;;;;;4.55;2.60;;;;;;;26.24;37.14;94852.72;4963750;28;20223;-68
2022/06/24 10:44:35;;;;;;;3.50;2.60;;;;;;;26.17;36.96;94847.53;4965913;28;20232;-71
2022/06/24 10:47:12;;;;;;;3.28;2.50;;;;;;;25.80;37.00;94844.66;4965296;28;20227;-67
2022/06/24 10:49:55;;;;;;;4.93;2.40;;;;;;;25.48;37.80;94841.81;4964851;28;20590;-67
2022/06/24 10:52:48;;;;;;;3.45;2.70;;;;;;;25.41;38.63;94843.88;4958969;28;20192;-67
2022/06/24 10:55:29;;;;;;;4.28;2.85;;;;;;;25.51;38.49;94847.53;4959838;28;20220;-69
2022/06/24 10:58:06;;;;;;;2.85;2.25;;;;;;;25.98;38.00;94848.91;4960609;28;20286;-66
2022/06/24 11:00:37;;;;;;;4.10;2.55;;;;;;;26.22;36.97;94844.06;4961597;28;20298;-66
2022/06/24 11:03:02;;;;;;;4.50;2.45;;;;;;;26.53;36.21;94847.09;4954416;28;20869;-66
2022/06/24 11:05:32;;;;;;;3.42;2.55;;;;;;;26.70;35.37;94838.88;4963387;28;20224;-67
2022/06/24 11:07:59;;;;;;;4.30;2.55;;;;;;;26.78;35.57;94841.09;4968659;28;20223;-63
2022/06/24 11:10:26;;;;;;;4.97;2.50;;;;;;;26.72;34.53;94834.03;4974241;28;20216;-64
2022/06/24 11:12:59;;;;;;;6.18;2.67;;;;;;;26.43;35.56;94836.97;4969949;28;20228;-64
2022/06/24 11:15:38;;;;;;;4.97;2.53;;;;;;;26.64;34.70;94829.94;4967460;28;20212;-64
2022/06/24 11:18:20;;;;;;;2.70;2.42;;;;;;;26.54;35.20;94827.13;4969092;28;20246;-65
2022/06/24 11:20:54;;;;;;;4.15;2.90;;;;;;;26.50;35.89;94831.41;4959541;28;20224;-63
2022/06/24 11:23:24;;;;;;;3.72;2.60;;;;;;;26.75;35.77;94833.53;4961884;28;20225;-65
2022/06/24 11:25:58;;;;;;;3.63;2.50;;;;;;;26.88;35.90;94825.00;4968034;28;20204;-65
2022/06/24 11:28:27;;;;;;;4.57;2.63;;;;;;;26.88;34.82;94826.88;4966646;28;20238;-66
2022/06/24 11:30:55;;;;;;;2.97;2.58;;;;;;;27.06;33.76;94826.47;4966156;28;20240;-65
2022/06/24 11:33:21;;;;;;;3.80;3.40;;;;;;;27.13;34.71;94824.38;4971656;28;20220;-64
2022/06/24 11:35:49;;;;;;;3.05;2.55;;;;;;;27.29;35.36;94819.88;4967307;28;20220;-65
2022/06/24 11:38:15;;;;;;;3.65;2.65;;;;;;;27.43;34.03;94818.38;4970985;28;20298;-63
2022/06/24 11:40:41;;;;;;;4.38;3.00;;;;;;;27.66;33.27;94809.00;4963369;28;20240;-64
2022/06/24 11:43:11;;;;;;;3.03;2.60;;;;;;;27.68;33.33;94808.75;4959792;28;20291;-63
2022/06/24 11:45:38;;;;;;;5.85;3.78;;;;;;;27.88;34.47;94808.03;4962421;28;20542;-65